Terminal Aerodrome Forecast
Issued by NWS

Home | Current Version | Previous Version | Text Only | Print | Product List | Glossary On
Versions: 1 2 3 4 5 6 7 8 9 10 11 12 13
000
FTUS44 KTSA 061100
TAFFYV
TAF
KFYV 061135Z 0612/0712 18010KT P6SM VCSH BKN050
      TEMPO 0612/0616 3SM -TSRA BKN025CB
     FM061800 16012G20KT P6SM OVC040
     FM070000 16010KT P6SM OVC050=

USA.gov is the U.S. government's official web portal to all federal, state and local government web resources and services.